createdAt,value
2018-12-17T00:01:03.458Z,95.06
2018-12-17T00:03:32.097Z,94.03
2018-12-17T00:06:00.317Z,94.06
2018-12-17T00:08:32.019Z,94.35
2018-12-17T00:10:59.196Z,94.16
2018-12-17T00:13:27.417Z,94.15
2018-12-17T00:15:55.583Z,94.18
2018-12-17T00:18:23.656Z,93.55
2018-12-17T00:20:51.857Z,93.75
2018-12-17T00:23:19.937Z,93.10
2018-12-17T00:25:48.076Z,92.86
2018-12-17T00:28:16.197Z,92.74
2018-12-17T00:30:44.339Z,92.79
2018-12-17T00:33:12.418Z,92.10
2018-12-17T00:35:40.577Z,92.30
2018-12-17T00:38:08.657Z,92.17
2018-12-17T00:40:40.998Z,91.92
2018-12-17T00:43:09.117Z,91.59
2018-12-17T00:45:37.250Z,91.93
2018-12-17T00:48:05.437Z,92.01
2018-12-17T00:50:33.537Z,91.85
2018-12-17T00:53:01.697Z,90.79
2018-12-17T00:55:29.857Z,90.24
2018-12-17T00:57:57.977Z,90.30
2018-12-17T01:00:26.137Z,90.77
2018-12-17T01:02:54.338Z,89.78
2018-12-17T01:05:22.417Z,90.31
2018-12-17T01:07:50.550Z,90.34
2018-12-17T01:10:19.077Z,91.29
2018-12-17T01:12:47.258Z,90.83
2018-12-17T01:15:15.440Z,91.57
2018-12-17T01:17:43.659Z,91.20
2018-12-17T01:20:11.817Z,90.79
2018-12-17T01:22:39.998Z,90.92
2018-12-17T01:25:08.217Z,91.08
2018-12-17T01:27:36.338Z,90.90
2018-12-17T01:30:05.459Z,91.44
2018-12-17T01:32:33.819Z,90.88
2018-12-17T01:35:01.929Z,91.01
2018-12-17T01:37:30.337Z,90.72
2018-12-17T01:39:58.400Z,91.12
2018-12-17T01:42:26.637Z,90.58
2018-12-17T01:44:54.617Z,90.31
2018-12-17T01:47:23.237Z,90.36
2018-12-17T01:49:51.321Z,90.00
2018-12-17T01:52:19.376Z,90.21
2018-12-17T01:54:47.477Z,90.61
2018-12-17T01:57:15.717Z,91.60
2018-12-17T01:59:43.757Z,91.81
2018-12-17T02:02:11.980Z,91.22
2018-12-17T02:04:41.657Z,91.15
2018-12-17T02:07:10.037Z,90.83
2018-12-17T02:09:38.278Z,89.95
2018-12-17T02:12:06.441Z,89.93
2018-12-17T02:14:36.739Z,89.96
2018-12-17T02:17:05.257Z,90.66
2018-12-17T02:19:33.637Z,90.69
2018-12-17T02:22:01.917Z,90.75
2018-12-17T02:24:30.236Z,90.51
2018-12-17T02:26:58.916Z,90.47
2018-12-17T02:29:27.359Z,89.87
2018-12-17T02:31:55.818Z,90.56
2018-12-17T02:34:25.077Z,90.54
2018-12-17T02:36:54.297Z,90.28
2018-12-17T02:39:22.637Z,90.19
2018-12-17T02:41:51.437Z,89.36
2018-12-17T02:44:21.298Z,89.18
2018-12-17T02:46:49.860Z,90.01
2018-12-17T02:49:18.678Z,89.38
2018-12-17T02:51:47.377Z,89.01
2018-12-17T02:54:16.300Z,89.83
2018-12-17T02:56:44.716Z,90.17
2018-12-17T02:59:13.337Z,89.42
2018-12-17T03:01:42.016Z,89.23
2018-12-17T03:04:13.176Z,89.78
2018-12-17T03:06:41.697Z,89.77
2018-12-17T03:09:10.017Z,88.92
2018-12-17T03:11:38.416Z,89.42
2018-12-17T03:14:06.859Z,89.52
2018-12-17T03:16:36.216Z,89.50
2018-12-17T03:19:04.597Z,89.03
2018-12-17T03:21:32.724Z,89.21
2018-12-17T03:24:01.359Z,90.20
2018-12-17T03:26:29.657Z,89.93
2018-12-17T03:28:58.038Z,90.43
2018-12-17T03:31:26.538Z,90.16
2018-12-17T03:33:55.217Z,89.98
2018-12-17T03:36:23.717Z,89.33
2018-12-17T03:38:52.057Z,90.05
2018-12-17T03:41:21.740Z,89.81
2018-12-17T03:43:50.677Z,89.23
2018-12-17T03:46:19.169Z,89.52
2018-12-17T03:48:47.597Z,89.66
2018-12-17T03:51:16.159Z,88.76
2018-12-17T03:53:44.829Z,89.17
2018-12-17T03:56:14.388Z,88.76
2018-12-17T03:58:43.128Z,89.46
2018-12-17T04:01:11.637Z,89.34
2018-12-17T04:03:41.257Z,89.04
2018-12-17T04:06:09.870Z,88.90
2018-12-17T04:08:38.136Z,88.43
2018-12-17T04:11:06.816Z,89.11
2018-12-17T04:13:35.636Z,88.48
2018-12-17T04:16:04.377Z,88.73
2018-12-17T04:18:33.156Z,88.48
2018-12-17T04:21:01.708Z,89.10
2018-12-17T04:23:30.577Z,89.15
2018-12-17T04:25:59.229Z,89.00
2018-12-17T04:28:28.028Z,88.72
2018-12-17T04:30:57.089Z,88.61
2018-12-17T04:33:26.368Z,88.64
2018-12-17T04:35:56.388Z,87.98
2018-12-17T04:38:25.249Z,88.17
2018-12-17T04:40:53.909Z,88.16
2018-12-17T04:43:22.618Z,88.61
2018-12-17T04:45:52.366Z,88.12
2018-12-17T04:48:21.377Z,87.61
2018-12-17T04:50:49.936Z,87.95
2018-12-17T04:53:19.676Z,87.96
2018-12-17T04:55:51.738Z,88.07
2018-12-17T04:58:20.229Z,88.41
2018-12-17T05:00:48.810Z,88.03
2018-12-17T05:03:17.149Z,88.64
2018-12-17T05:05:45.678Z,88.66
2018-12-17T05:08:14.188Z,88.01
2018-12-17T05:10:42.568Z,87.95
2018-12-17T05:13:11.029Z,88.44
2018-12-17T05:15:39.529Z,88.34
2018-12-17T05:18:07.951Z,88.22
2018-12-17T05:20:36.270Z,89.27
2018-12-17T05:23:04.528Z,89.04
2018-12-17T05:25:32.829Z,89.97
2018-12-17T05:28:01.189Z,89.89
2018-12-17T05:30:29.669Z,89.99
2018-12-17T05:32:58.517Z,89.89
2018-12-17T05:35:28.270Z,89.69
2018-12-17T05:37:57.097Z,89.30
2018-12-17T05:40:29.837Z,89.08
2018-12-17T05:42:59.478Z,88.77
2018-12-17T05:45:34.097Z,89.01
2018-12-17T05:48:02.909Z,88.86
2018-12-17T05:50:31.288Z,89.22
2018-12-17T05:52:59.469Z,89.27
2018-12-17T05:55:28.051Z,89.17
2018-12-17T05:57:56.416Z,89.45
2018-12-17T06:00:26.028Z,89.15
2018-12-17T06:02:54.316Z,89.35
2018-12-17T06:05:22.616Z,89.70
2018-12-17T06:07:50.896Z,89.78
2018-12-17T06:10:19.317Z,89.80
2018-12-17T06:12:48.156Z,90.25
2018-12-17T06:15:17.316Z,89.32
2018-12-17T06:17:49.865Z,89.38
2018-12-17T06:20:19.960Z,89.52
2018-12-17T06:22:51.576Z,89.76
2018-12-17T06:25:20.239Z,90.04
2018-12-17T06:27:48.877Z,89.61
2018-12-17T06:30:17.437Z,89.85
2018-12-17T06:32:45.877Z,90.08
2018-12-17T06:35:14.376Z,90.19
2018-12-17T06:37:43.997Z,89.96
2018-12-17T06:40:12.537Z,89.47
2018-12-17T06:42:40.877Z,89.90
2018-12-17T06:45:09.289Z,89.88
2018-12-17T06:47:37.577Z,90.00
2018-12-17T06:50:07.648Z,89.60
2018-12-17T06:52:36.268Z,89.82
2018-12-17T06:55:05.862Z,89.74
2018-12-17T06:57:34.576Z,89.83
2018-12-17T07:00:02.736Z,89.81
2018-12-17T07:02:31.137Z,90.19
2018-12-17T07:04:59.957Z,89.57
2018-12-17T07:07:28.079Z,89.50
2018-12-17T07:09:56.477Z,89.57
2018-12-17T07:12:24.916Z,89.43
2018-12-17T07:14:53.196Z,89.49
2018-12-17T07:17:21.649Z,90.04
2018-12-17T07:19:49.816Z,90.01
2018-12-17T07:22:17.998Z,89.99
2018-12-17T07:24:46.216Z,89.80
2018-12-17T07:27:14.456Z,90.28
2018-12-17T07:29:49.566Z,90.59
2018-12-17T07:32:13.177Z,90.16
2018-12-17T07:34:41.496Z,90.37
2018-12-17T07:37:09.836Z,90.93
2018-12-17T07:39:39.277Z,90.62
2018-12-17T07:42:07.497Z,90.46
2018-12-17T07:44:36.017Z,90.76
2018-12-17T07:47:04.157Z,90.90
2018-12-17T07:49:32.237Z,90.17
2018-12-17T07:52:00.377Z,90.04
2018-12-17T07:54:43.717Z,90.30
2018-12-17T07:57:11.829Z,90.77
2018-12-17T07:59:39.929Z,90.34
2018-12-17T08:02:08.117Z,90.60
2018-12-17T08:04:37.137Z,90.63
2018-12-17T08:07:05.697Z,90.29
2018-12-17T08:09:33.817Z,90.08
2018-12-17T08:12:01.989Z,89.92
2018-12-17T08:14:30.106Z,90.25
2018-12-17T08:17:02.099Z,90.30
2018-12-17T08:19:30.325Z,89.83
2018-12-17T08:21:58.391Z,90.11
2018-12-17T08:24:26.729Z,89.55
2018-12-17T08:26:54.857Z,89.42
2018-12-17T08:29:23.066Z,89.32
2018-12-17T08:31:51.181Z,89.59
2018-12-17T08:34:19.321Z,89.03
2018-12-17T08:36:47.425Z,88.73
2018-12-17T08:39:15.588Z,88.94
2018-12-17T08:41:43.725Z,88.80
2018-12-17T08:44:11.889Z,89.02
2018-12-17T08:46:40.009Z,89.67
2018-12-17T08:49:08.177Z,89.51
2018-12-17T08:51:36.351Z,89.80
2018-12-17T08:54:05.098Z,90.11
2018-12-17T08:56:33.205Z,90.08
2018-12-17T08:59:01.349Z,89.81
2018-12-17T09:01:29.557Z,89.75
2018-12-17T09:03:57.820Z,89.24
2018-12-17T09:06:25.971Z,89.04
2018-12-17T09:08:54.264Z,89.61
2018-12-17T09:11:22.377Z,89.92
2018-12-17T09:13:50.565Z,89.90
2018-12-17T09:16:18.685Z,89.25
2018-12-17T09:18:46.898Z,88.94
2018-12-17T09:21:15.105Z,88.56
2018-12-17T09:23:43.409Z,88.70
2018-12-17T09:26:11.509Z,88.74
2018-12-17T09:28:45.089Z,88.75
2018-12-17T09:31:13.250Z,88.73
2018-12-17T09:33:41.538Z,88.88
2018-12-17T09:36:09.760Z,88.39
2018-12-17T09:38:38.777Z,87.66
2018-12-17T09:41:06.985Z,88.75
2018-12-17T09:43:35.269Z,88.41
2018-12-17T09:46:03.330Z,88.55
2018-12-17T09:48:31.528Z,88.09
2018-12-17T09:50:59.642Z,88.92
2018-12-17T09:53:27.709Z,89.36
2018-12-17T09:55:56.177Z,88.96
2018-12-17T09:58:24.249Z,88.19
2018-12-17T10:00:52.309Z,87.35
2018-12-17T10:03:21.110Z,86.10
2018-12-17T10:05:49.252Z,85.28
2018-12-17T10:08:17.391Z,84.40
2018-12-17T10:10:45.669Z,84.03
2018-12-17T10:13:13.710Z,83.94
2018-12-17T10:15:41.929Z,83.74
2018-12-17T10:18:10.250Z,82.54
2018-12-17T10:20:38.392Z,82.30
2018-12-17T10:23:06.539Z,82.13
2018-12-17T10:25:34.749Z,81.66
2018-12-17T10:28:02.828Z,81.85
2018-12-17T10:30:32.666Z,82.27
2018-12-17T10:33:00.990Z,82.71
2018-12-17T10:35:29.149Z,81.97
2018-12-17T10:37:57.378Z,82.43
2018-12-17T10:40:25.697Z,83.06
2018-12-17T10:42:53.957Z,83.50
2018-12-17T10:45:22.119Z,83.45
2018-12-17T10:47:50.129Z,84.44
2018-12-17T10:50:18.317Z,84.37
2018-12-17T10:52:46.437Z,85.58
2018-12-17T10:55:14.637Z,86.24
2018-12-17T10:57:42.976Z,86.38
2018-12-17T11:00:16.687Z,86.33
2018-12-17T11:02:44.849Z,87.12
2018-12-17T11:05:15.989Z,87.38
2018-12-17T11:07:44.210Z,87.33
2018-12-17T11:10:12.286Z,87.17
2018-12-17T11:12:40.337Z,87.36
2018-12-17T11:15:10.258Z,88.67
2018-12-17T11:17:38.809Z,88.08
2018-12-17T11:20:09.200Z,88.60
2018-12-17T11:22:39.198Z,88.56
2018-12-17T11:25:07.689Z,88.66
2018-12-17T11:27:35.848Z,89.07
2018-12-17T11:30:05.597Z,89.47
2018-12-17T11:32:33.765Z,89.24
2018-12-17T11:35:01.830Z,89.14
2018-12-17T11:37:30.238Z,89.91
2018-12-17T11:39:58.288Z,90.50
2018-12-17T11:42:26.468Z,90.74
2018-12-17T11:44:54.613Z,91.00
2018-12-17T11:47:22.788Z,90.83
2018-12-17T11:49:51.029Z,91.97
2018-12-17T11:52:19.149Z,92.35
2018-12-17T11:54:47.276Z,92.64
2018-12-17T11:58:18.949Z,92.41
2018-12-17T12:00:54.240Z,92.49
2018-12-17T12:03:22.609Z,92.72
2018-12-17T12:05:50.713Z,92.83
2018-12-17T12:08:18.957Z,93.00
2018-12-17T12:10:46.988Z,92.62
2018-12-17T12:13:15.177Z,92.85
2018-12-17T12:15:43.358Z,93.07
2018-12-17T12:18:11.437Z,92.01
2018-12-17T12:20:39.428Z,92.06
2018-12-17T12:23:07.708Z,91.14
2018-12-17T12:25:35.798Z,91.57
2018-12-17T12:28:04.077Z,91.29
2018-12-17T12:30:32.249Z,90.24
2018-12-17T12:33:00.468Z,90.39
2018-12-17T12:35:28.572Z,90.04
2018-12-17T12:37:56.989Z,89.75
2018-12-17T12:40:25.649Z,89.37
2018-12-17T12:42:57.729Z,89.59
2018-12-17T12:45:25.869Z,89.05
2018-12-17T12:47:54.109Z,88.91
2018-12-17T12:50:38.989Z,89.18
2018-12-17T12:53:07.109Z,89.34
2018-12-17T12:55:35.269Z,89.28
2018-12-17T12:58:04.029Z,89.02
2018-12-17T13:00:35.709Z,89.00
2018-12-17T13:03:03.933Z,88.66
2018-12-17T13:05:35.668Z,88.58
2018-12-17T13:08:04.048Z,88.04
2018-12-17T13:10:32.119Z,88.49
2018-12-17T13:13:00.349Z,88.85
2018-12-17T13:15:28.529Z,88.87
2018-12-17T13:17:57.045Z,89.46
2018-12-17T13:20:25.471Z,89.24
2018-12-17T13:22:53.557Z,88.96
2018-12-17T13:25:26.772Z,89.08
2018-12-17T13:27:54.917Z,89.08
2018-12-17T13:30:23.229Z,89.39
2018-12-17T13:32:52.580Z,89.57
2018-12-17T13:35:20.877Z,89.54
2018-12-17T13:37:49.197Z,89.31
2018-12-17T13:40:17.369Z,89.14
2018-12-17T13:42:45.629Z,89.87
2018-12-17T13:45:16.050Z,89.75
2018-12-17T13:47:44.470Z,89.52
2018-12-17T13:50:18.590Z,90.22
2018-12-17T13:52:47.069Z,90.53
2018-12-17T13:55:15.737Z,89.97
2018-12-17T13:57:43.938Z,90.50
2018-12-17T14:00:17.377Z,90.63
2018-12-17T14:02:45.709Z,90.74
2018-12-17T14:05:13.985Z,91.40
2018-12-17T14:07:42.149Z,91.31
2018-12-17T14:10:16.457Z,91.65
2018-12-17T14:12:44.900Z,91.66
2018-12-17T14:15:13.277Z,91.67
2018-12-17T14:17:47.138Z,91.63
2018-12-17T14:20:21.057Z,91.90
2018-12-17T14:22:49.231Z,91.67
2018-12-17T14:25:17.520Z,91.78
2018-12-17T14:27:46.290Z,91.78
2018-12-17T14:44:34.790Z,91.58
2018-12-17T14:47:06.570Z,92.16
2018-12-17T14:49:34.753Z,92.33
2018-12-17T14:52:15.390Z,91.99
2018-12-17T14:58:47.370Z,92.00
2018-12-17T15:07:00.858Z,91.95
2018-12-17T15:09:51.066Z,92.35
2018-12-17T15:12:39.147Z,91.95
2018-12-17T15:15:09.530Z,92.25
2018-12-17T15:17:37.770Z,91.99
2018-12-17T15:20:06.799Z,91.46
2018-12-17T15:22:36.132Z,91.87
2018-12-17T15:25:04.843Z,91.68
2018-12-17T15:27:33.583Z,91.46
2018-12-17T15:30:01.910Z,91.46
2018-12-17T15:32:34.051Z,91.83
2018-12-17T15:35:02.506Z,91.97
2018-12-17T15:37:30.930Z,92.94
2018-12-17T15:39:59.109Z,92.83
2018-12-17T15:42:27.277Z,92.74
2018-12-17T15:44:55.370Z,92.65
2018-12-17T15:47:23.610Z,93.01
2018-12-17T15:49:52.120Z,92.98
2018-12-17T15:52:20.830Z,92.75
2018-12-17T15:54:48.929Z,92.97
2018-12-17T15:57:17.090Z,93.27
2018-12-17T15:59:45.698Z,93.04
2018-12-17T16:02:13.890Z,93.24
2018-12-17T16:04:42.241Z,93.05
2018-12-17T16:07:10.450Z,93.32
2018-12-17T16:09:38.972Z,93.38
2018-12-17T16:12:07.278Z,93.81
2018-12-17T16:14:35.378Z,93.80
2018-12-17T16:17:03.770Z,93.42
2018-12-17T16:19:33.028Z,93.21
2018-12-17T16:22:01.550Z,93.13
2018-12-17T16:24:30.078Z,93.32
2018-12-17T16:26:58.509Z,93.28
2018-12-17T16:29:27.219Z,93.15
2018-12-17T16:31:57.473Z,92.86
2018-12-17T16:34:26.138Z,92.70
2018-12-17T16:36:55.106Z,93.03
2018-12-17T16:39:23.490Z,92.82
2018-12-17T16:41:52.172Z,92.61
2018-12-17T16:44:20.618Z,92.84
2018-12-17T16:46:49.189Z,93.08
2018-12-17T16:49:17.577Z,93.29
2018-12-17T16:51:49.306Z,93.43
2018-12-17T16:54:17.660Z,93.26
2018-12-17T16:56:46.058Z,93.41
2018-12-17T16:59:14.965Z,93.53
2018-12-17T17:01:43.430Z,93.36
2018-12-17T17:04:11.878Z,93.54
2018-12-17T17:06:40.311Z,93.65
2018-12-17T17:09:08.978Z,93.59
2018-12-17T17:11:37.978Z,93.67
2018-12-17T17:14:06.450Z,93.80
2018-12-17T17:16:34.909Z,93.37
2018-12-17T17:19:03.398Z,93.58
2018-12-17T17:21:32.410Z,94.12
2018-12-17T17:24:00.878Z,93.40
2018-12-17T17:26:29.578Z,93.56
2018-12-17T17:28:58.118Z,93.13
2018-12-17T17:31:26.652Z,93.40
2018-12-17T17:33:55.130Z,93.33
2018-12-17T17:36:23.610Z,93.04
2018-12-17T17:38:52.418Z,93.49
2018-12-17T17:41:20.990Z,93.29
2018-12-17T17:43:49.379Z,93.08
2018-12-17T17:46:18.123Z,93.21
2018-12-17T17:48:46.698Z,93.00
2018-12-17T17:51:15.238Z,93.25
2018-12-17T17:53:43.750Z,93.26
2018-12-17T17:56:12.210Z,93.52
2018-12-17T17:58:41.010Z,93.25
2018-12-17T18:01:09.532Z,93.02
2018-12-17T18:03:38.286Z,93.38
2018-12-17T18:06:07.192Z,93.60
2018-12-17T18:08:35.859Z,93.33
2018-12-17T18:24:35.957Z,93.34
2018-12-17T18:29:47.110Z,93.23
2018-12-17T18:32:15.638Z,93.41
2018-12-17T18:34:44.271Z,93.31
2018-12-17T18:37:13.345Z,92.88
2018-12-17T18:39:42.629Z,93.27
2018-12-17T18:42:11.538Z,93.46
2018-12-17T18:44:40.350Z,93.19
2018-12-17T18:47:09.651Z,93.36
2018-12-17T18:49:51.189Z,93.47
2018-12-17T18:52:19.798Z,93.28
2018-12-17T18:54:49.458Z,93.67
2018-12-17T18:57:18.318Z,93.38
2018-12-17T18:59:46.850Z,93.54
2018-12-17T19:02:15.949Z,92.97
2018-12-17T19:04:48.990Z,93.24
2018-12-17T19:07:18.638Z,93.63
2018-12-17T19:09:47.140Z,93.36
2018-12-17T19:12:18.026Z,93.22
2018-12-17T19:14:46.769Z,93.11
2018-12-17T19:17:15.289Z,93.15
2018-12-17T19:19:44.057Z,93.19
2018-12-17T19:22:12.715Z,93.40
2018-12-17T19:24:41.298Z,93.45
2018-12-17T19:27:13.150Z,93.30
2018-12-17T19:29:41.790Z,93.32
2018-12-17T19:32:11.758Z,93.21
2018-12-17T19:34:47.111Z,93.26
2018-12-17T19:37:17.938Z,93.28
2018-12-17T19:39:50.330Z,93.17
2018-12-17T19:42:26.109Z,93.21
2018-12-17T19:45:00.020Z,93.10
2018-12-17T19:47:30.937Z,93.10
2018-12-17T20:04:57.357Z,92.71
2018-12-17T20:07:26.450Z,92.94
2018-12-17T20:10:00.011Z,92.81
2018-12-17T20:12:33.030Z,92.91
2018-12-17T20:15:02.878Z,92.88
2018-12-17T20:17:33.862Z,92.82
2018-12-17T20:20:03.298Z,93.09
2018-12-17T20:22:35.590Z,93.12
2018-12-17T20:25:09.550Z,92.82
2018-12-17T20:27:51.151Z,92.65
2018-12-17T20:47:44.818Z,92.60
2018-12-17T20:50:41.758Z,92.92
2018-12-17T20:53:15.850Z,92.98
2018-12-17T20:55:49.638Z,92.79
2018-12-17T20:58:32.937Z,92.40
2018-12-17T21:01:08.393Z,92.14
2018-12-17T21:03:40.580Z,91.93
2018-12-17T21:06:13.038Z,92.10
2018-12-17T21:11:36.478Z,92.37
2018-12-17T21:14:08.293Z,91.99
2018-12-17T21:16:36.898Z,91.97
2018-12-17T21:19:05.358Z,92.17
2018-12-17T21:21:33.858Z,92.40
2018-12-17T21:24:02.350Z,91.95
2018-12-17T21:26:30.938Z,92.29
2018-12-17T21:28:59.438Z,91.87
2018-12-17T21:31:28.010Z,92.08
2018-12-17T21:33:56.558Z,91.72
2018-12-17T21:36:25.138Z,92.20
2018-12-17T21:38:53.730Z,91.96
2018-12-17T21:41:22.259Z,91.63
2018-12-17T21:43:50.837Z,91.98
2018-12-17T21:46:19.397Z,92.37
2018-12-17T21:48:48.858Z,92.12
2018-12-17T21:51:18.318Z,92.14
2018-12-17T21:53:47.028Z,92.37
2018-12-17T21:56:15.429Z,91.91
2018-12-17T21:58:43.938Z,92.02
2018-12-17T22:01:16.110Z,91.97
2018-12-17T22:03:44.537Z,92.34
2018-12-17T22:06:12.949Z,92.06
2018-12-17T22:08:41.425Z,91.87
2018-12-17T22:11:09.883Z,92.21
2018-12-17T22:13:38.237Z,91.92
2018-12-17T22:16:06.557Z,92.11
2018-12-17T22:18:35.217Z,92.19
2018-12-17T22:21:03.309Z,92.68
2018-12-17T22:23:31.677Z,92.40
2018-12-17T22:25:59.957Z,92.34
2018-12-17T22:28:28.150Z,92.55
2018-12-17T22:30:56.805Z,92.67
2018-12-17T22:33:24.958Z,91.87
2018-12-17T22:35:53.069Z,92.25
2018-12-17T22:38:21.309Z,91.69
2018-12-17T22:40:49.529Z,92.01
2018-12-17T22:43:17.671Z,92.17
2018-12-17T22:45:45.728Z,92.18
2018-12-17T22:48:13.957Z,91.61
2018-12-17T22:50:42.172Z,91.44
2018-12-17T22:53:10.450Z,91.73
2018-12-17T22:55:38.548Z,91.70
2018-12-17T22:58:06.748Z,91.69
2018-12-17T23:00:34.948Z,91.34
2018-12-17T23:03:03.175Z,91.61
2018-12-17T23:05:31.336Z,91.00
2018-12-17T23:07:59.828Z,91.33
2018-12-17T23:10:44.835Z,91.18
2018-12-17T23:13:23.875Z,91.06
2018-12-17T23:16:03.112Z,91.26
2018-12-17T23:18:29.857Z,91.07
2018-12-17T23:20:58.008Z,91.53
2018-12-17T23:23:26.378Z,91.40
2018-12-17T23:25:54.516Z,91.18
2018-12-17T23:28:22.696Z,91.58
2018-12-17T23:30:50.796Z,90.95
2018-12-17T23:33:18.868Z,91.55
2018-12-17T23:35:46.958Z,91.42
2018-12-17T23:38:15.016Z,91.44
2018-12-17T23:40:43.151Z,91.02
2018-12-17T23:43:11.316Z,90.91
2018-12-17T23:45:39.367Z,91.20
2018-12-17T23:48:07.467Z,90.69
2018-12-17T23:50:35.715Z,91.22
2018-12-17T23:53:03.816Z,90.66
2018-12-17T23:55:31.998Z,90.75
2018-12-17T23:58:00.068Z,90.50
